Flight Track Log - Related Links

Times and Time Zones

All times are in EDT time to prevent confusion due to time zone crossing. See the N9228V flight status page for this flight to view local times or setup timezone preferences in your user account.

Time Position Orientation Groundspeed Altitude Reporting Facility
EDT Latitude Longitude Course Direction KTS MPH feet Rate Location/Type
Sat 10:29:15 AM 39.6283 -84.2236 21° North 91 105 2,600  Level Indianapolis Center
Sat 10:30:04 AM 39.6483 -84.2136 21° North 95 109 3,100 655 Climbing Indianapolis Center
Sat 10:31:05 AM 39.6725 -84.2017 21° North 90 104 3,800 623 Climbing Indianapolis Center
Sat 10:31:21 AM 39.6739 -84.1997 47° Northeast 90 104 3,900 885 Climbing Indianapolis Center
Sat 10:32:06 AM 39.6981 -84.2006 358° North 97 112 4,700 871 Climbing Indianapolis Center
Sat 10:32:23 AM 39.7061 -84.2008 358° North 94 108 4,800 689 Climbing Indianapolis Center
Sat 10:33:07 AM 39.7253 -84.2000 North 94 108 5,400 774 Climbing Indianapolis Center
Sat 10:33:25 AM 39.7331 -84.1978 12° North 96 110 5,600 689 Climbing Indianapolis Center
Sat 10:34:08 AM 39.7511 -84.1964 North 96 110 6,100 492 Climbing Indianapolis Center
Sat 10:34:26 AM 39.7592 -84.1958 North 95 109 6,100  Level Indianapolis Center
Sat 10:35:09 AM 39.7853 -84.1917 North 117 135 6,100  Level Indianapolis Center
Sat 10:35:28 AM 39.7917 -84.1897 13° North 106 122 6,100  Level Indianapolis Center
Sat 10:36:10 AM 39.8194 -84.1869 North 128 147 6,100  Level Indianapolis Center
Sat 10:36:30 AM 39.8264 -84.1822 28° Northeast 119 137 6,100  Level Indianapolis Center
Sat 10:37:11 AM 39.8544 -84.1739 13° North 125 144 6,100 -97 Level Indianapolis Center
Sat 10:37:32 AM 39.8597 -84.1714 20° North 123 142 6,000 -98 Descending Indianapolis Center
Sat 10:38:12 AM 39.8853 -84.1603 18° North 120 138 6,000  Level Indianapolis Center
Sat 10:38:33 AM 39.8925 -84.1583 12° North 124 143 6,000  Level Indianapolis Center
Sat 10:39:19 AM 39.9233 -84.1589 359° North 124 143 6,000 97 Level Indianapolis Center
Sat 10:39:35 AM 39.9333 -84.1553 15° North 123 142 6,100  Climbing Indianapolis Center
Sat 10:40:20 AM 39.9597 -84.1544 North 121 139 6,000 -97 Descending Indianapolis Center
Sat 10:40:37 AM 39.9681 -84.1522 12° North 123 142 6,000  Level Indianapolis Center
Sat 10:41:21 AM 39.9919 -84.1467 10° North 122 140 6,000  Level Indianapolis Center
Sat 10:41:39 AM 40.0011 -84.1436 14° North 123 142 6,000  Level Indianapolis Center
Sat 10:42:22 AM 40.0283 -84.1419 North 124 143 6,000  Level Indianapolis Center
Sat 10:42:40 AM 40.0358 -84.1389 17° North 123 142 6,000  Level Indianapolis Center
Sat 10:43:23 AM 40.0606 -84.1342 North 122 140 6,000  Level Indianapolis Center
Sat 10:43:42 AM 40.0697 -84.1325 North 124 143 6,000  Level Indianapolis Center
Sat 10:44:23 AM 40.0950 -84.1267 10° North 124 143 6,000  Level Indianapolis Center
Sat 10:44:44 AM 40.1031 -84.1217 25° Northeast 123 142 6,000 109 Level Indianapolis Center
Sat 10:45:18 AM 40.1256 -84.1183 North 124 143 6,100 97 Climbing Indianapolis Center
Sat 10:45:46 AM 40.1372 -84.1161 North 123 142 6,100  Level Indianapolis Center
Sat 10:46:19 AM 40.1636 -84.1169 359° North 125 144 6,100  Level Indianapolis Center
Sat 10:46:47 AM 40.1719 -84.1142 14° North 124 143 6,100  Level Indianapolis Center
Sat 10:47:26 AM 40.1997 -84.1122 North 124 143 6,100  Level Indianapolis Center
Sat 10:47:49 AM 40.2136 -84.1094 North 125 144 6,100  Level Indianapolis Center
Sat 10:48:27 AM 40.2336 -84.1100 359° North 124 143 6,100  Level Indianapolis Center
Sat 10:48:51 AM 40.2475 -84.1058 13° North 124 143 6,100  Level Indianapolis Center
Sat 10:49:22 AM 40.2658 -84.1050 North 123 142 6,100 -295 Level Indianapolis Center
Sat 10:49:52 AM 40.2817 -84.1011 11° North 123 142 5,800 -590 Descending Indianapolis Center
Sat 10:50:23 AM 40.3019 -84.1003 North 135 155 5,500 -484 Descending Indianapolis Center
Sat 10:50:54 AM 40.3197 -84.0958 11° North 129 148 5,300 -590 Descending Indianapolis Center
Sat 10:51:24 AM 40.3425 -84.0939 North 136 157 4,900 -677 Descending Indianapolis Center
Sat 10:51:56 AM 40.3581 -84.0908 North 133 153 4,600 -590 Descending Indianapolis Center
Sat 10:52:25 AM 40.3831 -84.0900 North 142 163 4,300 -492 Descending Indianapolis Center
Sat 10:52:57 AM 40.3981 -84.0878 North 139 160 4,100 -383 Descending Indianapolis Center
Sat 10:53:59 AM 40.4369 -84.0867 North 140 161 3,700 -387 Descending Indianapolis Center
Sat 10:55:01 AM 40.4847 -84.0864 360° North 142 163 3,300 -244 Descending Indianapolis Center
Sat 10:56:02 AM 40.5242 -84.0850 North 142 163 3,200 -98 Descending Indianapolis Center

Login

Don't have an account? Register now (free) for customized features, flight alerts, and more!